sensor_id;sensor_type;location;lat;lon;timestamp;pressure;altitude;pressure_sealevel;temperature;humidity
61682;BME280;47577;43.610;25.010;2022-10-16T00:01:13;101292.88;;;6.33;78.62
61682;BME280;47577;43.610;25.010;2022-10-16T00:03:39;101311.38;;;6.29;78.76
61682;BME280;47577;43.610;25.010;2022-10-16T00:06:06;101311.34;;;6.41;77.79
61682;BME280;47577;43.610;25.010;2022-10-16T00:08:33;101308.69;;;6.38;78.11
61682;BME280;47577;43.610;25.010;2022-10-16T00:11:04;101314.88;;;6.42;77.91
61682;BME280;47577;43.610;25.010;2022-10-16T00:13:32;101295.53;;;6.30;77.75
61682;BME280;47577;43.610;25.010;2022-10-16T00:15:59;101304.31;;;6.35;76.82
61682;BME280;47577;43.610;25.010;2022-10-16T00:18:26;101309.63;;;6.28;77.47
61682;BME280;47577;43.610;25.010;2022-10-16T00:20:52;101312.25;;;6.26;77.08
61682;BME280;47577;43.610;25.010;2022-10-16T00:23:18;101317.53;;;6.28;77.39
61682;BME280;47577;43.610;25.010;2022-10-16T00:25:44;101320.19;;;6.28;78.20
61682;BME280;47577;43.610;25.010;2022-10-16T00:28:10;101321.94;;;6.24;78.08
61682;BME280;47577;43.610;25.010;2022-10-16T00:30:39;101327.25;;;5.98;79.38
61682;BME280;47577;43.610;25.010;2022-10-16T00:33:05;101317.56;;;6.12;78.85
61682;BME280;47577;43.610;25.010;2022-10-16T00:35:31;101323.69;;;6.27;77.19
61682;BME280;47577;43.610;25.010;2022-10-16T00:37:56;101323.69;;;6.27;77.61
61682;BME280;47577;43.610;25.010;2022-10-16T00:40:23;101316.66;;;6.22;77.24
61682;BME280;47577;43.610;25.010;2022-10-16T00:42:49;101321.94;;;6.27;77.51
61682;BME280;47577;43.610;25.010;2022-10-16T00:45:14;101321.94;;;6.19;77.51
61682;BME280;47577;43.610;25.010;2022-10-16T00:47:45;101320.19;;;6.23;76.77
61682;BME280;47577;43.610;25.010;2022-10-16T00:50:28;101329.88;;;6.26;78.01
61682;BME280;47577;43.610;25.010;2022-10-16T00:52:56;101324.59;;;6.19;76.19
61682;BME280;47577;43.610;25.010;2022-10-16T00:55:22;101320.19;;;6.17;77.44
61682;BME280;47577;43.610;25.010;2022-10-16T00:57:49;101329.00;;;6.16;77.69
61682;BME280;47577;43.610;25.010;2022-10-16T01:00:20;101322.84;;;6.11;78.03
61682;BME280;47577;43.610;25.010;2022-10-16T01:02:54;101315.78;;;6.03;78.31
61682;BME280;47577;43.610;25.010;2022-10-16T01:05:44;101329.00;;;6.07;77.52
61682;BME280;47577;43.610;25.010;2022-10-16T01:08:12;101330.78;;;6.08;78.39
61682;BME280;47577;43.610;25.010;2022-10-16T01:10:55;101341.34;;;6.03;77.96
61682;BME280;47577;43.610;25.010;2022-10-16T01:13:33;101330.75;;;5.97;77.35
61682;BME280;47577;43.610;25.010;2022-10-16T01:16:11;101335.13;;;5.84;78.36
61682;BME280;47577;43.610;25.010;2022-10-16T01:21:16;101329.81;;;5.75;78.41
61682;BME280;47577;43.610;25.010;2022-10-16T01:29:05;101340.38;;;5.70;78.12
61682;BME280;47577;43.610;25.010;2022-10-16T01:31:36;101339.50;;;5.71;77.71
61682;BME280;47577;43.610;25.010;2022-10-16T01:34:16;101336.84;;;5.60;77.17
61682;BME280;47577;43.610;25.010;2022-10-16T01:36:56;101335.97;;;5.60;76.93
61682;BME280;47577;43.610;25.010;2022-10-16T01:39:29;101328.94;;;5.51;77.21
61682;BME280;47577;43.610;25.010;2022-10-16T01:42:22;101343.88;;;5.57;77.55
61682;BME280;47577;43.610;25.010;2022-10-16T01:44:51;101346.50;;;5.50;78.28
61682;BME280;47577;43.610;25.010;2022-10-16T01:47:22;101332.44;;;5.48;78.54
61682;BME280;47577;43.610;25.010;2022-10-16T01:49:50;101351.78;;;5.57;77.68
61682;BME280;47577;43.610;25.010;2022-10-16T01:52:20;101343.88;;;5.47;78.82
61682;BME280;47577;43.610;25.010;2022-10-16T01:54:50;101337.66;;;5.38;79.04
61682;BME280;47577;43.610;25.010;2022-10-16T01:57:19;101340.34;;;5.44;78.75
61682;BME280;47577;43.610;25.010;2022-10-16T01:59:50;101350.03;;;5.48;79.01
61682;BME280;47577;43.610;25.010;2022-10-16T02:02:18;101343.88;;;5.50;77.05
61682;BME280;47577;43.610;25.010;2022-10-16T02:04:53;101337.69;;;5.39;78.20
61682;BME280;47577;43.610;25.010;2022-10-16T02:07:21;101346.50;;;5.41;78.57
61682;BME280;47577;43.610;25.010;2022-10-16T02:09:47;101347.38;;;5.43;77.29
61682;BME280;47577;43.610;25.010;2022-10-16T02:12:28;101352.66;;;5.40;76.87
61682;BME280;47577;43.610;25.010;2022-10-16T02:14:55;101357.94;;;5.43;77.35
61682;BME280;47577;43.610;25.010;2022-10-16T02:17:21;101350.84;;;5.38;77.45
61682;BME280;47577;43.610;25.010;2022-10-16T02:19:48;101367.59;;;5.41;78.41
61682;BME280;47577;43.610;25.010;2022-10-16T02:22:27;101366.69;;;5.39;78.11
61682;BME280;47577;43.610;25.010;2022-10-16T02:28:22;101386.94;;;5.43;78.44
61682;BME280;47577;43.610;25.010;2022-10-16T02:30:59;101392.22;;;5.42;78.51
61682;BME280;47577;43.610;25.010;2022-10-16T02:33:27;101376.31;;;5.19;78.45
61682;BME280;47577;43.610;25.010;2022-10-16T02:35:54;101387.78;;;5.28;78.14
61682;BME280;47577;43.610;25.010;2022-10-16T02:38:24;101378.03;;;5.17;77.83
61682;BME280;47577;43.610;25.010;2022-10-16T02:40:51;101377.94;;;4.93;78.64
61682;BME280;47577;43.610;25.010;2022-10-16T02:43:17;101385.03;;;5.04;79.71
61682;BME280;47577;43.610;25.010;2022-10-16T02:45:43;101388.63;;;5.15;78.30
61682;BME280;47577;43.610;25.010;2022-10-16T02:48:09;101393.00;;;5.18;78.69
61682;BME280;47577;43.610;25.010;2022-10-16T02:50:35;101390.34;;;5.15;78.19
61682;BME280;47577;43.610;25.010;2022-10-16T02:53:01;101396.47;;;5.07;77.67
61682;BME280;47577;43.610;25.010;2022-10-16T02:55:27;101388.56;;;5.06;78.34
61682;BME280;47577;43.610;25.010;2022-10-16T02:57:53;101383.28;;;5.03;79.17
61682;BME280;47577;43.610;25.010;2022-10-16T03:00:19;101401.72;;;5.01;78.58
61682;BME280;47577;43.610;25.010;2022-10-16T03:02:45;101380.59;;;4.95;79.48
61682;BME280;47577;43.610;25.010;2022-10-16T03:05:13;101391.09;;;4.89;79.82
61682;BME280;47577;43.610;25.010;2022-10-16T03:07:39;101407.75;;;4.79;79.86
61682;BME280;47577;43.610;25.010;2022-10-16T03:10:05;101406.06;;;4.91;79.48
61682;BME280;47577;43.610;25.010;2022-10-16T03:12:31;101389.38;;;4.92;78.52
61682;BME280;47577;43.610;25.010;2022-10-16T03:14:57;101408.78;;;5.04;78.92
61682;BME280;47577;43.610;25.010;2022-10-16T03:17:23;101405.28;;;5.12;77.67
61682;BME280;47577;43.610;25.010;2022-10-16T03:19:49;101410.50;;;5.03;78.35
61682;BME280;47577;43.610;25.010;2022-10-16T03:22:15;101402.56;;;4.99;77.99
61682;BME280;47577;43.610;25.010;2022-10-16T03:24:40;101401.66;;;4.92;78.40
61682;BME280;47577;43.610;25.010;2022-10-16T03:27:06;101407.84;;;5.00;77.82
61682;BME280;47577;43.610;25.010;2022-10-16T03:29:32;101408.63;;;4.84;78.51
61682;BME280;47577;43.610;25.010;2022-10-16T03:31:58;101415.75;;;4.92;77.90
61682;BME280;47577;43.610;25.010;2022-10-16T03:34:24;101407.84;;;4.94;77.66
61682;BME280;47577;43.610;25.010;2022-10-16T03:36:51;101416.53;;;4.81;78.64
61682;BME280;47577;43.610;25.010;2022-10-16T03:39:16;101411.22;;;4.76;78.21
61682;BME280;47577;43.610;25.010;2022-10-16T03:41:42;101414.81;;;4.87;77.85
61682;BME280;47577;43.610;25.010;2022-10-16T03:44:08;101407.72;;;4.77;77.16
61682;BME280;47577;43.610;25.010;2022-10-16T03:46:36;101405.06;;;4.72;78.04
61682;BME280;47577;43.610;25.010;2022-10-16T03:49:02;101404.16;;;4.69;77.63
61682;BME280;47577;43.610;25.010;2022-10-16T03:51:27;101418.19;;;4.68;77.38
61682;BME280;47577;43.610;25.010;2022-10-16T03:53:53;101422.66;;;4.73;77.11
61682;BME280;47577;43.610;25.010;2022-10-16T03:56:18;101419.13;;;4.70;77.61
61682;BME280;47577;43.610;25.010;2022-10-16T03:58:44;101410.28;;;4.60;78.31
61682;BME280;47577;43.610;25.010;2022-10-16T04:01:10;101425.19;;;4.61;78.98
61682;BME280;47577;43.610;25.010;2022-10-16T04:03:35;101414.59;;;4.55;78.50
61682;BME280;47577;43.610;25.010;2022-10-16T04:06:01;101405.78;;;4.48;77.59
61682;BME280;47577;43.610;25.010;2022-10-16T04:08:26;101413.69;;;4.50;78.21
61682;BME280;47577;43.610;25.010;2022-10-16T04:10:52;101409.31;;;4.49;77.83
61682;BME280;47577;43.610;25.010;2022-10-16T04:13:18;101419.84;;;4.53;79.00
61682;BME280;47577;43.610;25.010;2022-10-16T04:15:44;101419.00;;;4.54;77.99
61682;BME280;47577;43.610;25.010;2022-10-16T04:18:10;101417.25;;;4.56;77.74
61682;BME280;47577;43.610;25.010;2022-10-16T04:20:36;101417.25;;;4.56;77.01
61682;BME280;47577;43.610;25.010;2022-10-16T04:23:02;101419.06;;;4.62;77.13
61682;BME280;47577;43.610;25.010;2022-10-16T04:25:28;101427.81;;;4.61;78.02
61682;BME280;47577;43.610;25.010;2022-10-16T04:27:55;101420.75;;;4.55;78.06
61682;BME280;47577;43.610;25.010;2022-10-16T04:30:21;101426.94;;;4.59;78.41
61682;BME280;47577;43.610;25.010;2022-10-16T04:32:48;101432.97;;;4.43;79.83
61682;BME280;47577;43.610;25.010;2022-10-16T04:35:16;101426.91;;;4.54;80.29
61682;BME280;47577;43.610;25.010;2022-10-16T04:37:43;101418.16;;;4.60;79.35
61682;BME280;47577;43.610;25.010;2022-10-16T04:40:08;101413.75;;;4.57;77.95
61682;BME280;47577;43.610;25.010;2022-10-16T04:42:34;101424.31;;;4.62;77.76
61682;BME280;47577;43.610;25.010;2022-10-16T04:45:00;101432.28;;;4.70;76.63
61682;BME280;47577;43.610;25.010;2022-10-16T04:47:25;101429.59;;;4.61;77.33
61682;BME280;47577;43.610;25.010;2022-10-16T04:49:51;101433.13;;;4.66;77.66
61682;BME280;47577;43.610;25.010;2022-10-16T04:52:16;101444.44;;;4.51;78.35
61682;BME280;47577;43.610;25.010;2022-10-16T04:54:44;101440.06;;;4.53;79.90
61682;BME280;47577;43.610;25.010;2022-10-16T04:57:10;101439.25;;;4.60;79.16
61682;BME280;47577;43.610;25.010;2022-10-16T04:59:36;101448.94;;;4.66;79.10
61682;BME280;47577;43.610;25.010;2022-10-16T05:02:02;101455.06;;;4.66;79.09
61682;BME280;47577;43.610;25.010;2022-10-16T05:04:28;101447.16;;;4.65;79.64
61682;BME280;47577;43.610;25.010;2022-10-16T05:06:54;101451.59;;;4.70;78.63
61682;BME280;47577;43.610;25.010;2022-10-16T05:09:19;101462.22;;;4.84;79.44
61682;BME280;47577;43.610;25.010;2022-10-16T05:11:46;101463.16;;;4.91;79.53
61682;BME280;47577;43.610;25.010;2022-10-16T05:14:11;101455.22;;;4.83;79.02
61682;BME280;47577;43.610;25.010;2022-10-16T05:16:37;101462.28;;;4.93;79.13
61682;BME280;47577;43.610;25.010;2022-10-16T05:19:03;101463.22;;;5.03;79.35
61682;BME280;47577;43.610;25.010;2022-10-16T05:21:29;101472.97;;;5.12;79.86
61682;BME280;47577;43.610;25.010;2022-10-16T05:23:55;101472.97;;;5.20;79.42
61682;BME280;47577;43.610;25.010;2022-10-16T05:26:21;101477.44;;;5.27;80.12
61682;BME280;47577;43.610;25.010;2022-10-16T05:28:46;101481.03;;;5.44;79.66
61682;BME280;47577;43.610;25.010;2022-10-16T05:31:12;101480.19;;;5.53;80.42
61682;BME280;47577;43.610;25.010;2022-10-16T05:33:37;101483.75;;;5.67;79.46
61682;BME280;47577;43.610;25.010;2022-10-16T05:36:08;101477.66;;;5.81;78.59
61682;BME280;47577;43.610;25.010;2022-10-16T05:38:37;101489.19;;;6.06;78.29
61682;BME280;47577;43.610;25.010;2022-10-16T05:41:04;101498.91;;;6.26;76.83
61682;BME280;47577;43.610;25.010;2022-10-16T05:43:31;101495.38;;;6.33;77.11
61682;BME280;47577;43.610;25.010;2022-10-16T05:45:58;101509.50;;;6.50;77.03
61682;BME280;47577;43.610;25.010;2022-10-16T05:48:25;101506.88;;;6.58;77.74
61682;BME280;47577;43.610;25.010;2022-10-16T05:50:58;101505.09;;;6.69;77.28
61682;BME280;47577;43.610;25.010;2022-10-16T05:53:24;101510.38;;;6.85;76.81
61682;BME280;47577;43.610;25.010;2022-10-16T05:55:55;101527.97;;;7.01;76.42
61682;BME280;47577;43.610;25.010;2022-10-16T05:58:22;101519.16;;;7.07;76.65
61682;BME280;47577;43.610;25.010;2022-10-16T06:01:00;101522.69;;;7.20;76.07
61682;BME280;47577;43.610;25.010;2022-10-16T06:03:26;101536.75;;;7.37;78.10
61682;BME280;47577;43.610;25.010;2022-10-16T06:05:52;101539.34;;;7.49;78.48
61682;BME280;47577;43.610;25.010;2022-10-16T06:08:20;101540.19;;;7.68;79.64
61682;BME280;47577;43.610;25.010;2022-10-16T06:10:46;101541.00;;;7.80;80.35
61682;BME280;47577;43.610;25.010;2022-10-16T06:13:13;101547.09;;;8.00;81.04
61682;BME280;47577;43.610;25.010;2022-10-16T06:15:40;101538.22;;;8.08;79.84
61682;BME280;47577;43.610;25.010;2022-10-16T06:18:09;101550.47;;;8.27;80.56
61682;BME280;47577;43.610;25.010;2022-10-16T06:20:36;101546.00;;;8.35;80.33
61682;BME280;47577;43.610;25.010;2022-10-16T06:23:02;101547.78;;;8.44;80.08
61682;BME280;47577;43.610;25.010;2022-10-16T06:25:30;101552.94;;;8.59;80.13
61682;BME280;47577;43.610;25.010;2022-10-16T06:27:56;101567.81;;;8.81;79.36
61682;BME280;47577;43.610;25.010;2022-10-16T06:30:22;101558.06;;;8.84;78.94
61682;BME280;47577;43.610;25.010;2022-10-16T06:32:47;101564.09;;;9.02;78.59
61682;BME280;47577;43.610;25.010;2022-10-16T06:35:13;101561.34;;;9.14;78.64
61682;BME280;47577;43.610;25.010;2022-10-16T06:37:39;101567.47;;;9.22;78.32
61682;BME280;47577;43.610;25.010;2022-10-16T06:40:05;101563.81;;;9.34;77.86
61682;BME280;47577;43.610;25.010;2022-10-16T06:42:30;101569.84;;;9.48;77.37
61682;BME280;47577;43.610;25.010;2022-10-16T06:44:56;101575.91;;;9.61;77.49
61682;BME280;47577;43.610;25.010;2022-10-16T06:47:22;101571.34;;;9.73;76.49
61682;BME280;47577;43.610;25.010;2022-10-16T06:49:47;101561.41;;;9.90;77.78
61682;BME280;47577;43.610;25.010;2022-10-16T06:52:13;101569.19;;;10.04;77.29
61682;BME280;47577;43.610;25.010;2022-10-16T06:54:38;101568.25;;;10.08;77.01
61682;BME280;47577;43.610;25.010;2022-10-16T06:57:04;101582.25;;;10.22;75.69
61682;BME280;47577;43.610;25.010;2022-10-16T06:59:30;101574.19;;;10.30;76.20
61682;BME280;47577;43.610;25.010;2022-10-16T07:01:55;101583.78;;;10.42;77.00
61682;BME280;47577;43.610;25.010;2022-10-16T07:04:21;101588.88;;;10.56;75.26
61682;BME280;47577;43.610;25.010;2022-10-16T07:06:46;101586.97;;;10.66;75.57
61682;BME280;47577;43.610;25.010;2022-10-16T07:09:12;101589.41;;;10.81;74.37
61682;BME280;47577;43.610;25.010;2022-10-16T07:11:39;101584.72;;;10.97;74.65
61682;BME280;47577;43.610;25.010;2022-10-16T07:14:12;101586.28;;;11.09;73.87
61682;BME280;47577;43.610;25.010;2022-10-16T07:16:40;101585.16;;;11.22;72.92
61682;BME280;47577;43.610;25.010;2022-10-16T07:19:06;101586.78;;;11.32;73.26
61682;BME280;47577;43.610;25.010;2022-10-16T07:21:33;101584.81;;;11.42;72.46
61682;BME280;47577;43.610;25.010;2022-10-16T07:24:04;101567.13;;;11.38;72.51
61682;BME280;47577;43.610;25.010;2022-10-16T07:26:34;101578.34;;;11.56;72.35
61682;BME280;47577;43.610;25.010;2022-10-16T07:29:00;101573.72;;;11.65;71.54
61682;BME280;47577;43.610;25.010;2022-10-16T07:31:26;101570.63;;;11.85;71.91
61682;BME280;47577;43.610;25.010;2022-10-16T07:33:53;101587.19;;;12.03;71.48
61682;BME280;47577;43.610;25.010;2022-10-16T07:36:21;101586.16;;;12.10;70.26
61682;BME280;47577;43.610;25.010;2022-10-16T07:38:47;101584.13;;;12.23;69.81
61682;BME280;47577;43.610;25.010;2022-10-16T07:41:15;101582.81;;;12.41;69.07
61682;BME280;47577;43.610;25.010;2022-10-16T07:43:48;101597.63;;;12.54;69.50
61682;BME280;47577;43.610;25.010;2022-10-16T07:46:15;101594.47;;;12.74;68.58
61682;BME280;47577;43.610;25.010;2022-10-16T07:48:42;101592.47;;;12.84;68.25
61682;BME280;47577;43.610;25.010;2022-10-16T07:51:11;101588.22;;;12.77;66.45
61682;BME280;47577;43.610;25.010;2022-10-16T07:53:37;101591.56;;;12.85;67.63
61682;BME280;47577;43.610;25.010;2022-10-16T07:56:05;101587.75;;;12.95;68.32
61682;BME280;47577;43.610;25.010;2022-10-16T07:58:32;101594.34;;;13.16;67.46
61682;BME280;47577;43.610;25.010;2022-10-16T08:00:58;101591.94;;;13.07;66.42
61682;BME280;47577;43.610;25.010;2022-10-16T08:03:24;101601.97;;;13.32;67.47
61682;BME280;47577;43.610;25.010;2022-10-16T08:05:51;101595.59;;;13.38;65.21
61682;BME280;47577;43.610;25.010;2022-10-16T08:08:18;101599.81;;;13.48;65.83
61682;BME280;47577;43.610;25.010;2022-10-16T08:10:44;101586.25;;;13.54;65.05
61682;BME280;47577;43.610;25.010;2022-10-16T08:13:10;101587.84;;;13.61;65.43
61682;BME280;47577;43.610;25.010;2022-10-16T08:15:37;101598.72;;;13.86;64.34
61682;BME280;47577;43.610;25.010;2022-10-16T08:18:04;101590.28;;;14.02;63.98
61682;BME280;47577;43.610;25.010;2022-10-16T08:20:31;101597.84;;;14.17;63.67
61682;BME280;47577;43.610;25.010;2022-10-16T08:22:57;101589.66;;;14.22;63.84
61682;BME280;47577;43.610;25.010;2022-10-16T08:25:24;101597.28;;;14.36;64.17
61682;BME280;47577;43.610;25.010;2022-10-16T08:27:50;101599.13;;;14.63;61.51
61682;BME280;47577;43.610;25.010;2022-10-16T08:30:17;101606.88;;;14.73;60.31
61682;BME280;47577;43.610;25.010;2022-10-16T08:32:43;101605.06;;;14.73;61.99
61682;BME280;47577;43.610;25.010;2022-10-16T08:35:10;101607.22;;;14.90;60.71
61682;BME280;47577;43.610;25.010;2022-10-16T08:37:36;101618.16;;;15.09;60.31
61682;BME280;47577;43.610;25.010;2022-10-16T08:40:02;101609.72;;;15.22;59.21
61682;BME280;47577;43.610;25.010;2022-10-16T08:45:34;101617.69;;;15.50;59.04
61682;BME280;47577;43.610;25.010;2022-10-16T08:51:02;101612.31;;;15.75;57.91
61682;BME280;47577;43.610;25.010;2022-10-16T08:53:43;101618.84;;;15.93;58.46
61682;BME280;47577;43.610;25.010;2022-10-16T08:56:10;101613.97;;;16.04;56.85
61682;BME280;47577;43.610;25.010;2022-10-16T08:58:36;101610.84;;;16.17;57.12
61682;BME280;47577;43.610;25.010;2022-10-16T09:01:13;101615.88;;;16.24;55.55
61682;BME280;47577;43.610;25.010;2022-10-16T09:04:13;101611.53;;;16.22;56.07
61682;BME280;47577;43.610;25.010;2022-10-16T09:06:53;101612.16;;;16.29;56.29
61682;BME280;47577;43.610;25.010;2022-10-16T09:22:44;101615.97;;;16.91;53.65
61682;BME280;47577;43.610;25.010;2022-10-16T09:25:15;101616.16;;;17.08;52.02
61682;BME280;47577;43.610;25.010;2022-10-16T09:27:42;101620.06;;;17.22;52.00
61682;BME280;47577;43.610;25.010;2022-10-16T09:30:15;101620.56;;;17.31;51.62
61682;BME280;47577;43.610;25.010;2022-10-16T09:32:43;101619.19;;;17.43;50.60
61682;BME280;47577;43.610;25.010;2022-10-16T09:35:16;101600.28;;;17.45;49.61
61682;BME280;47577;43.610;25.010;2022-10-16T09:37:45;101605.75;;;17.43;50.52
61682;BME280;47577;43.610;25.010;2022-10-16T09:40:35;101607.47;;;17.44;49.26
61682;BME280;47577;43.610;25.010;2022-10-16T09:45:42;101598.78;;;17.38;50.16
61682;BME280;47577;43.610;25.010;2022-10-16T09:48:11;101602.16;;;17.22;49.62
61682;BME280;47577;43.610;25.010;2022-10-16T09:50:38;101609.97;;;17.49;49.17
61682;BME280;47577;43.610;25.010;2022-10-16T09:53:14;101594.97;;;17.64;48.95
61682;BME280;47577;43.610;25.010;2022-10-16T09:55:53;101584.53;;;17.77;47.24
61682;BME280;47577;43.610;25.010;2022-10-16T09:58:22;101579.88;;;18.01;46.83
61682;BME280;47577;43.610;25.010;2022-10-16T10:00:53;101585.56;;;17.74;47.38
61682;BME280;47577;43.610;25.010;2022-10-16T10:03:40;101584.09;;;17.46;47.44
61682;BME280;47577;43.610;25.010;2022-10-16T10:06:13;101580.78;;;17.81;47.96
61682;BME280;47577;43.610;25.010;2022-10-16T10:09:04;101585.69;;;17.92;47.21
61682;BME280;47577;43.610;25.010;2022-10-16T10:11:39;101587.09;;;18.19;47.24
61682;BME280;47577;43.610;25.010;2022-10-16T10:14:15;101567.09;;;18.25;44.99
61682;BME280;47577;43.610;25.010;2022-10-16T10:16:42;101572.25;;;18.49;44.26
61682;BME280;47577;43.610;25.010;2022-10-16T10:19:27;101569.00;;;18.59;44.26
61682;BME280;47577;43.610;25.010;2022-10-16T10:21:52;101570.31;;;18.70;43.78
61682;BME280;47577;43.610;25.010;2022-10-16T10:24:19;101575.94;;;18.84;43.50
61682;BME280;47577;43.610;25.010;2022-10-16T10:27:09;101576.19;;;18.97;42.04
61682;BME280;47577;43.610;25.010;2022-10-16T10:36:22;101567.72;;;19.40;39.37
61682;BME280;47577;43.610;25.010;2022-10-16T10:43:17;101563.81;;;19.45;38.50
61682;BME280;47577;43.610;25.010;2022-10-16T10:45:53;101553.66;;;19.50;37.28
61682;BME280;47577;43.610;25.010;2022-10-16T10:48:54;101564.06;;;19.41;37.54
61682;BME280;47577;43.610;25.010;2022-10-16T10:54:35;101554.22;;;19.57;39.38
61682;BME280;47577;43.610;25.010;2022-10-16T10:58:19;101554.59;;;19.67;39.29
61682;BME280;47577;43.610;25.010;2022-10-16T11:05:53;101535.38;;;19.73;38.77
61682;BME280;47577;43.610;25.010;2022-10-16T11:08:31;101533.72;;;19.70;39.50
61682;BME280;47577;43.610;25.010;2022-10-16T11:11:32;101536.09;;;19.77;39.45
61682;BME280;47577;43.610;25.010;2022-10-16T11:17:31;101541.59;;;19.58;39.71
61682;BME280;47577;43.610;25.010;2022-10-16T11:20:13;101536.34;;;19.54;40.05
61682;BME280;47577;43.610;25.010;2022-10-16T11:25:27;101536.66;;;19.32;39.80
61682;BME280;47577;43.610;25.010;2022-10-16T11:31:24;101528.63;;;19.31;40.60
61682;BME280;47577;43.610;25.010;2022-10-16T11:37:16;101530.22;;;19.86;39.53
61682;BME280;47577;43.610;25.010;2022-10-16T11:39:44;101519.88;;;19.94;39.48
61682;BME280;47577;43.610;25.010;2022-10-16T11:47:26;101534.13;;;20.44;38.23
61682;BME280;47577;43.610;25.010;2022-10-16T11:49:58;101526.34;;;20.39;37.87
61682;BME280;47577;43.610;25.010;2022-10-16T11:55:31;101533.97;;;20.31;37.27
61682;BME280;47577;43.610;25.010;2022-10-16T12:00:59;101525.59;;;20.52;38.84
61682;BME280;47577;43.610;25.010;2022-10-16T12:03:33;101532.06;;;20.65;37.52
61682;BME280;47577;43.610;25.010;2022-10-16T12:06:25;101539.03;;;20.69;37.24
61682;BME280;47577;43.610;25.010;2022-10-16T12:08:56;101530.34;;;20.64;36.83
61682;BME280;47577;43.610;25.010;2022-10-16T12:16:31;101528.06;;;20.24;37.00
61682;BME280;47577;43.610;25.010;2022-10-16T12:19:14;101538.00;;;20.40;37.72
61682;BME280;47577;43.610;25.010;2022-10-16T12:21:41;101539.84;;;20.39;37.19
61682;BME280;47577;43.610;25.010;2022-10-16T12:24:41;101539.56;;;20.12;38.68
61682;BME280;47577;43.610;25.010;2022-10-16T12:27:27;101530.06;;;20.37;37.51
61682;BME280;47577;43.610;25.010;2022-10-16T12:29:58;101531.44;;;20.44;37.64
61682;BME280;47577;43.610;25.010;2022-10-16T12:32:38;101537.72;;;20.60;39.00
61682;BME280;47577;43.610;25.010;2022-10-16T12:35:16;101534.66;;;20.82;36.69
61682;BME280;47577;43.610;25.010;2022-10-16T12:37:44;101528.28;;;20.84;37.28
61682;BME280;47577;43.610;25.010;2022-10-16T12:40:29;101544.16;;;20.90;37.35
61682;BME280;47577;43.610;25.010;2022-10-16T12:42:56;101537.75;;;20.91;36.88
61682;BME280;47577;43.610;25.010;2022-10-16T12:45:28;101540.38;;;20.92;37.34
61682;BME280;47577;43.610;25.010;2022-10-16T12:47:57;101539.69;;;20.89;37.33
61682;BME280;47577;43.610;25.010;2022-10-16T12:50:38;101538.56;;;20.93;36.17
61682;BME280;47577;43.610;25.010;2022-10-16T12:53:21;101545.22;;;20.71;36.40
61682;BME280;47577;43.610;25.010;2022-10-16T13:01:10;101542.84;;;20.81;36.82
61682;BME280;47577;43.610;25.010;2022-10-16T13:03:57;101540.09;;;20.51;35.93
61682;BME280;47577;43.610;25.010;2022-10-16T13:10:00;101543.66;;;20.51;37.27
61682;BME280;47577;43.610;25.010;2022-10-16T13:15:13;101538.25;;;20.35;37.11
61682;BME280;47577;43.610;25.010;2022-10-16T13:23:35;101553.22;;;20.89;36.49
61682;BME280;47577;43.610;25.010;2022-10-16T13:26:21;101544.28;;;20.72;36.15
61682;BME280;47577;43.610;25.010;2022-10-16T13:28:52;101554.25;;;20.86;36.68
61682;BME280;47577;43.610;25.010;2022-10-16T13:31:22;101547.91;;;20.71;36.14
61682;BME280;47577;43.610;25.010;2022-10-16T13:33:52;101544.78;;;20.31;35.98
61682;BME280;47577;43.610;25.010;2022-10-16T13:36:28;101553.59;;;20.51;36.43
61682;BME280;47577;43.610;25.010;2022-10-16T13:41:35;101549.59;;;20.74;36.79
61682;BME280;47577;43.610;25.010;2022-10-16T13:44:00;101553.50;;;20.68;36.41
61682;BME280;47577;43.610;25.010;2022-10-16T13:46:26;101551.31;;;20.59;36.19
61682;BME280;47577;43.610;25.010;2022-10-16T13:49:04;101570.69;;;20.67;36.80
61682;BME280;47577;43.610;25.010;2022-10-16T13:51:31;101549.81;;;20.85;35.28
61682;BME280;47577;43.610;25.010;2022-10-16T13:53:57;101560.72;;;20.84;35.22
61682;BME280;47577;43.610;25.010;2022-10-16T13:56:31;101564.03;;;20.73;35.97
61682;BME280;47577;43.610;25.010;2022-10-16T14:01:30;101551.06;;;20.63;36.06
61682;BME280;47577;43.610;25.010;2022-10-16T14:04:05;101563.97;;;20.74;35.50
61682;BME280;47577;43.610;25.010;2022-10-16T14:06:32;101561.34;;;20.73;35.42
61682;BME280;47577;43.610;25.010;2022-10-16T14:09:08;101558.88;;;20.52;35.64
61682;BME280;47577;43.610;25.010;2022-10-16T14:11:48;101563.97;;;20.26;36.44
61682;BME280;47577;43.610;25.010;2022-10-16T14:14:15;101569.94;;;20.16;36.83
61682;BME280;47577;43.610;25.010;2022-10-16T14:16:42;101573.16;;;20.06;36.90
61682;BME280;47577;43.610;25.010;2022-10-16T14:19:28;101578.78;;;20.02;37.79
61682;BME280;47577;43.610;25.010;2022-10-16T14:21:54;101573.31;;;19.87;37.94
61682;BME280;47577;43.610;25.010;2022-10-16T14:26:53;101585.44;;;19.61;39.45
61682;BME280;47577;43.610;25.010;2022-10-16T14:29:22;101582.38;;;19.51;38.61
61682;BME280;47577;43.610;25.010;2022-10-16T14:32:20;101583.34;;;19.33;39.27
61682;BME280;47577;43.610;25.010;2022-10-16T14:34:53;101579.78;;;19.32;38.39
61682;BME280;47577;43.610;25.010;2022-10-16T14:37:29;101584.91;;;19.02;38.69
61682;BME280;47577;43.610;25.010;2022-10-16T14:39:56;101585.78;;;19.03;39.61
61682;BME280;47577;43.610;25.010;2022-10-16T14:42:24;101584.88;;;18.85;39.60
61682;BME280;47577;43.610;25.010;2022-10-16T14:44:52;101589.53;;;18.81;40.85
61682;BME280;47577;43.610;25.010;2022-10-16T14:47:20;101590.41;;;18.62;41.25